createdAt,value
2023-05-04T00:01:35.948Z,8.95
2023-05-04T00:05:38.896Z,8.85
2023-05-04T00:09:41.981Z,8.81
2023-05-04T00:13:44.889Z,8.71
2023-05-04T00:17:49.211Z,8.57
2023-05-04T00:21:52.171Z,8.64
2023-05-04T00:25:55.265Z,8.51
2023-05-04T00:29:58.211Z,8.50
2023-05-04T00:34:02.594Z,8.42
2023-05-04T00:38:06.381Z,8.40
2023-05-04T00:42:09.282Z,8.40
2023-05-04T00:46:12.405Z,8.37
2023-05-04T00:50:17.129Z,8.31
2023-05-04T00:54:20.997Z,8.26
2023-05-04T00:58:25.330Z,8.24
2023-05-04T01:02:28.479Z,8.25
2023-05-04T01:06:36.335Z,8.24
2023-05-04T01:10:42.979Z,8.28
2023-05-04T01:14:47.899Z,8.35
2023-05-04T01:18:51.048Z,8.34
2023-05-04T01:22:56.276Z,8.33
2023-05-04T01:27:04.150Z,8.28
2023-05-04T01:31:09.820Z,8.24
2023-05-04T01:35:13.632Z,8.25
2023-05-04T01:39:17.934Z,8.27
2023-05-04T01:43:20.882Z,8.21
2023-05-04T01:47:24.007Z,8.23
2023-05-04T01:51:27.398Z,8.21
2023-05-04T01:55:32.210Z,8.19
2023-05-04T01:59:35.154Z,8.14
2023-05-04T02:03:38.181Z,8.06
2023-05-04T02:07:41.566Z,7.99
2023-05-04T02:11:45.973Z,7.99
2023-05-04T02:15:49.072Z,7.91
2023-05-04T02:19:53.204Z,7.69
2023-05-04T02:23:56.149Z,7.84
2023-05-04T02:28:02.127Z,7.71
2023-05-04T02:32:05.308Z,7.56
2023-05-04T02:36:09.015Z,7.46
2023-05-04T02:40:12.863Z,7.37
2023-05-04T02:44:17.148Z,7.30
2023-05-04T02:48:20.179Z,7.21
2023-05-04T02:52:23.037Z,7.25
2023-05-04T02:56:26.364Z,7.35
2023-05-04T03:00:30.710Z,7.66
2023-05-04T03:04:33.684Z,7.77
2023-05-04T03:08:36.628Z,7.90
2023-05-04T03:12:39.518Z,7.91
2023-05-04T03:16:43.920Z,7.97
2023-05-04T03:20:47.047Z,8.00
2023-05-04T03:24:53.830Z,7.94
2023-05-04T03:28:56.947Z,7.90
2023-05-04T03:33:01.481Z,7.84
2023-05-04T03:37:05.193Z,7.77
2023-05-04T03:41:08.876Z,7.81
2023-05-04T03:45:12.222Z,7.79
2023-05-04T03:49:16.577Z,7.85
2023-05-04T03:53:20.104Z,7.95
2023-05-04T03:57:24.353Z,7.99
2023-05-04T04:01:28.305Z,7.99
2023-05-04T04:05:32.788Z,7.85
2023-05-04T04:09:35.767Z,7.81
2023-05-04T04:13:39.529Z,7.75
2023-05-04T04:17:42.417Z,7.69
2023-05-04T04:21:46.807Z,7.64
2023-05-04T04:25:49.972Z,7.63
2023-05-04T04:29:53.312Z,7.64
2023-05-04T04:33:57.415Z,7.73
2023-05-04T04:38:03.791Z,7.99
2023-05-04T04:42:07.329Z,8.18
2023-05-04T04:46:10.691Z,8.29
2023-05-04T04:50:13.716Z,8.41
2023-05-04T04:54:17.979Z,8.66
2023-05-04T04:58:21.103Z,8.71
2023-05-04T05:02:24.211Z,8.83
2023-05-04T05:06:27.231Z,8.96
2023-05-04T05:10:31.589Z,9.11
2023-05-04T05:14:35.244Z,9.19
2023-05-04T05:18:38.340Z,9.30
2023-05-04T05:22:43.323Z,9.39
2023-05-04T05:26:47.700Z,9.52
2023-05-04T05:30:52.119Z,9.66
2023-05-04T05:34:55.259Z,9.78
2023-05-04T05:38:58.142Z,9.97
2023-05-04T05:43:02.489Z,10.09
2023-05-04T05:47:05.899Z,10.25
2023-05-04T05:51:09.354Z,10.43
2023-05-04T05:55:13.091Z,10.57
2023-05-04T05:59:17.421Z,10.90
2023-05-04T06:03:20.477Z,11.05
2023-05-04T06:07:23.794Z,11.27
2023-05-04T06:11:26.948Z,11.45
2023-05-04T06:15:31.450Z,11.44
2023-05-04T06:19:35.455Z,11.59
2023-05-04T06:23:38.451Z,11.75
2023-05-04T06:27:41.396Z,11.99
2023-05-04T06:31:47.503Z,12.30
2023-05-04T06:35:51.978Z,12.37
2023-05-04T06:39:55.292Z,12.40
2023-05-04T06:43:59.943Z,12.62
2023-05-04T06:48:04.400Z,12.74
2023-05-04T06:52:07.433Z,12.91
2023-05-04T06:56:10.435Z,12.93
2023-05-04T07:00:14.122Z,12.82
2023-05-04T07:04:23.160Z,13.11
2023-05-04T07:08:26.235Z,13.04
2023-05-04T07:12:29.312Z,13.20
2023-05-04T07:16:33.189Z,13.41
2023-05-04T07:20:37.804Z,13.54
2023-05-04T07:24:40.669Z,13.72
2023-05-04T07:28:44.310Z,13.81
2023-05-04T07:32:47.357Z,14.00
2023-05-04T07:36:51.877Z,14.18
2023-05-04T07:40:55.423Z,14.10
2023-05-04T07:44:58.718Z,14.06
2023-05-04T07:49:01.772Z,14.35
2023-05-04T07:53:06.249Z,14.79
2023-05-04T07:57:09.439Z,14.79
2023-05-04T08:01:12.682Z,15.00
2023-05-04T08:05:15.811Z,15.34
2023-05-04T08:09:20.241Z,15.56
2023-05-04T08:13:23.227Z,16.27
2023-05-04T08:17:26.434Z,16.67
2023-05-04T08:21:29.406Z,16.42
2023-05-04T08:25:33.785Z,16.43
2023-05-04T08:29:37.765Z,17.51
2023-05-04T08:33:41.056Z,17.38
2023-05-04T08:37:44.516Z,17.60
2023-05-04T08:41:48.996Z,17.59
2023-05-04T08:45:52.293Z,18.28
2023-05-04T08:49:56.436Z,17.55
2023-05-04T08:53:59.785Z,18.18
2023-05-04T08:58:06.419Z,18.64
2023-05-04T09:02:11.484Z,19.26
2023-05-04T09:06:14.813Z,19.27
2023-05-04T09:10:18.160Z,19.41
2023-05-04T09:14:23.054Z,19.84
2023-05-04T09:18:36.921Z,19.46
2023-05-04T09:22:39.930Z,20.41
2023-05-04T09:26:43.128Z,19.62
2023-05-04T09:30:48.438Z,20.15
2023-05-04T09:34:52.011Z,20.24
2023-05-04T09:38:55.418Z,20.13
2023-05-04T09:42:58.673Z,20.03
2023-05-04T09:47:03.103Z,20.74
2023-05-04T09:51:07.556Z,20.73
2023-05-04T09:55:12.544Z,20.72
2023-05-04T09:59:16.815Z,20.94
2023-05-04T10:03:22.069Z,20.96
2023-05-04T10:07:26.211Z,21.17
2023-05-04T10:11:29.829Z,21.35
2023-05-04T10:15:33.231Z,21.99
2023-05-04T10:19:49.270Z,22.31
2023-05-04T10:24:06.139Z,21.73
2023-05-04T10:28:16.714Z,22.17
2023-05-04T10:32:20.902Z,21.55
2023-05-04T10:36:25.327Z,22.16
2023-05-04T10:40:38.102Z,22.69
2023-05-04T10:44:50.207Z,22.10
2023-05-04T10:48:53.393Z,23.10
2023-05-04T10:52:59.549Z,23.28
2023-05-04T10:57:05.022Z,22.90
2023-05-04T11:01:12.673Z,23.47
2023-05-04T11:05:18.573Z,23.37
2023-05-04T11:09:22.941Z,23.47
2023-05-04T11:13:26.994Z,23.50
2023-05-04T11:17:30.216Z,23.51
2023-05-04T11:21:33.202Z,23.39
2023-05-04T11:25:38.097Z,23.18
2023-05-04T11:29:41.441Z,23.01
2023-05-04T11:33:48.365Z,23.26
2023-05-04T11:37:51.740Z,23.31
2023-05-04T11:41:56.162Z,24.37
2023-05-04T11:46:01.117Z,23.26
2023-05-04T11:50:05.036Z,23.97
2023-05-04T11:54:08.207Z,23.07
2023-05-04T11:58:12.874Z,23.96
2023-05-04T12:02:16.525Z,23.85
2023-05-04T12:06:19.883Z,24.82
2023-05-04T12:10:26.306Z,25.23
2023-05-04T12:14:30.739Z,25.04
2023-05-04T12:18:33.599Z,24.05
2023-05-04T12:22:36.902Z,23.57
2023-05-04T12:26:39.748Z,24.58
2023-05-04T12:30:44.065Z,25.05
2023-05-04T12:34:47.300Z,25.08
2023-05-04T12:38:50.350Z,25.03
2023-05-04T12:42:53.321Z,24.87
2023-05-04T12:46:57.898Z,25.40
2023-05-04T12:51:01.343Z,24.57
2023-05-04T12:55:04.943Z,25.95
2023-05-04T12:59:07.992Z,25.21
2023-05-04T13:03:13.537Z,25.98
2023-05-04T13:07:16.593Z,26.35
2023-05-04T13:11:20.524Z,26.64
2023-05-04T13:15:23.736Z,25.68
2023-05-04T13:19:29.000Z,25.27
2023-05-04T13:23:31.946Z,25.02
2023-05-04T13:27:34.844Z,24.62
2023-05-04T13:31:38.195Z,24.27
2023-05-04T13:35:48.739Z,24.74
2023-05-04T13:39:51.676Z,25.17
2023-05-04T13:43:56.092Z,25.28
2023-05-04T13:47:59.252Z,24.92
2023-05-04T13:52:03.855Z,25.21
2023-05-04T13:56:06.930Z,24.83
2023-05-04T14:00:10.805Z,24.70
2023-05-04T14:04:14.445Z,24.55
2023-05-04T14:08:18.855Z,24.72
2023-05-04T14:12:22.477Z,24.86
2023-05-04T14:16:25.666Z,25.60
2023-05-04T14:20:29.066Z,25.75
2023-05-04T14:24:34.450Z,25.92
2023-05-04T14:28:37.302Z,25.47
2023-05-04T14:32:41.003Z,25.82
2023-05-04T14:36:43.858Z,26.63
2023-05-04T14:40:49.651Z,26.83
2023-05-04T14:44:53.109Z,25.80
2023-05-04T14:48:56.141Z,25.56
2023-05-04T14:52:59.139Z,25.69
2023-05-04T14:57:03.761Z,25.98
2023-05-04T15:01:06.977Z,26.17
2023-05-04T15:05:12.519Z,25.57
2023-05-04T15:09:15.414Z,25.77
2023-05-04T15:13:20.096Z,26.21
2023-05-04T15:17:22.923Z,25.76
2023-05-04T15:21:26.189Z,25.80
2023-05-04T15:25:29.112Z,25.91
2023-05-04T15:29:33.373Z,26.17
2023-05-04T15:33:36.218Z,26.56
2023-05-04T15:37:39.081Z,26.72
2023-05-04T15:41:42.703Z,26.72
2023-05-04T15:45:46.909Z,26.95
2023-05-04T15:49:49.901Z,26.49
2023-05-04T15:53:52.793Z,27.10
2023-05-04T15:57:58.415Z,27.95
2023-05-04T16:02:05.858Z,27.09
2023-05-04T16:06:09.754Z,26.78
2023-05-04T16:10:13.184Z,27.25
2023-05-04T16:14:16.260Z,25.86
2023-05-04T16:18:20.960Z,26.46
2023-05-04T16:22:23.926Z,25.94
2023-05-04T16:26:26.859Z,25.78
2023-05-04T16:30:32.945Z,25.85
2023-05-04T16:34:37.229Z,25.39
2023-05-04T16:38:40.095Z,25.31
2023-05-04T16:42:43.213Z,25.52
2023-05-04T16:46:46.418Z,25.19
2023-05-04T16:50:50.743Z,25.01
2023-05-04T16:54:53.645Z,25.49
2023-05-04T16:58:56.551Z,25.57
2023-05-04T17:02:59.465Z,25.55
2023-05-04T17:07:03.877Z,25.49
2023-05-04T17:11:06.801Z,25.77
2023-05-04T17:15:11.066Z,26.40
2023-05-04T17:19:14.339Z,25.99
2023-05-04T17:23:18.624Z,25.94
2023-05-04T17:27:21.664Z,26.13
2023-05-04T17:31:24.674Z,25.62
2023-05-04T17:35:27.697Z,25.77
2023-05-04T17:39:32.305Z,25.62
2023-05-04T17:43:35.242Z,25.58
2023-05-04T17:47:38.229Z,25.04
2023-05-04T17:51:41.541Z,25.21
2023-05-04T17:55:46.014Z,23.87
2023-05-04T17:59:49.465Z,23.29
2023-05-04T18:03:52.477Z,23.07
2023-05-04T18:07:55.437Z,22.64
2023-05-04T18:11:59.870Z,22.55
2023-05-04T18:16:02.918Z,22.46
2023-05-04T18:20:06.961Z,22.00
2023-05-04T18:24:10.360Z,21.73
2023-05-04T18:28:23.590Z,21.58
2023-05-04T18:32:26.498Z,21.33
2023-05-04T18:36:29.590Z,21.15
2023-05-04T18:40:32.633Z,20.99
2023-05-04T18:44:38.180Z,20.71
2023-05-04T18:48:41.164Z,20.60
2023-05-04T18:52:44.044Z,20.48
2023-05-04T18:56:46.884Z,20.25
2023-05-04T19:00:52.542Z,20.17
2023-05-04T19:04:55.653Z,20.16
2023-05-04T19:08:58.807Z,20.16
2023-05-04T19:13:03.368Z,20.08
2023-05-04T19:17:07.980Z,20.04
2023-05-04T19:21:10.995Z,19.90
2023-05-04T19:25:27.088Z,19.86
2023-05-04T19:29:36.485Z,19.74
2023-05-04T19:33:48.545Z,19.78
2023-05-04T19:37:52.006Z,19.72
2023-05-04T19:41:54.910Z,19.42
2023-05-04T19:45:57.916Z,19.27
2023-05-04T19:50:02.129Z,19.08
2023-05-04T19:54:05.336Z,19.04
2023-05-04T19:58:10.706Z,18.96
2023-05-04T20:02:14.153Z,18.94
2023-05-04T20:06:18.459Z,18.94
2023-05-04T20:10:21.793Z,18.80
2023-05-04T20:14:24.681Z,18.72
2023-05-04T20:18:27.620Z,18.70
2023-05-04T20:22:32.436Z,18.65
2023-05-04T20:26:35.726Z,18.38
2023-05-04T20:30:38.583Z,18.43
2023-05-04T20:34:43.103Z,18.24
2023-05-04T20:38:47.342Z,18.17
2023-05-04T20:42:50.251Z,18.20
2023-05-04T20:46:53.644Z,18.07
2023-05-04T20:51:06.548Z,17.98
2023-05-04T20:55:18.237Z,17.83
2023-05-04T20:59:21.203Z,17.78
2023-05-04T21:03:24.278Z,17.76
2023-05-04T21:07:27.706Z,17.64
2023-05-04T21:11:32.291Z,17.61
2023-05-04T21:15:35.217Z,17.50
2023-05-04T21:19:38.390Z,17.45
2023-05-04T21:23:41.373Z,17.48
2023-05-04T21:27:45.624Z,17.47
2023-05-04T21:31:48.613Z,17.46
2023-05-04T21:35:51.765Z,17.44
2023-05-04T21:39:55.780Z,17.33
2023-05-04T21:44:00.337Z,17.31
2023-05-04T21:48:03.896Z,17.29
2023-05-04T21:52:06.796Z,17.21
2023-05-04T21:56:10.182Z,17.33
2023-05-04T22:00:18.206Z,17.39
2023-05-04T22:04:21.685Z,17.41
2023-05-04T22:08:24.672Z,17.36
2023-05-04T22:12:27.557Z,17.41
2023-05-04T22:16:31.849Z,17.32
2023-05-04T22:20:34.833Z,17.25
2023-05-04T22:24:37.725Z,17.20
2023-05-04T22:28:40.650Z,17.16
2023-05-04T22:32:44.933Z,17.20
2023-05-04T22:36:48.747Z,17.19
2023-05-04T22:40:51.704Z,17.17
2023-05-04T22:44:54.674Z,17.14
2023-05-04T22:48:59.027Z,17.07
2023-05-04T22:53:02.057Z,16.97
2023-05-04T22:57:05.067Z,16.92
2023-05-04T23:01:10.232Z,17.04
2023-05-04T23:05:14.759Z,17.15
2023-05-04T23:09:17.907Z,17.21
2023-05-04T23:13:20.882Z,17.17
2023-05-04T23:17:23.784Z,17.13
2023-05-04T23:21:28.397Z,17.16
2023-05-04T23:25:31.716Z,17.11
2023-05-04T23:29:34.618Z,17.05
2023-05-04T23:33:37.484Z,17.18
2023-05-04T23:37:41.754Z,17.18
2023-05-04T23:41:44.997Z,17.21
2023-05-04T23:45:47.947Z,17.28
2023-05-04T23:49:51.166Z,17.30
2023-05-04T23:53:55.800Z,17.30
2023-05-04T23:57:58.706Z,17.22
